createdAt,value
2023-05-12T00:00:21.232Z,1.04
2023-05-12T00:01:20.745Z,1.04
2023-05-12T00:02:20.834Z,1.04
2023-05-12T00:03:21.044Z,1.04
2023-05-12T00:04:21.107Z,1.04
2023-05-12T00:05:21.248Z,1.04
2023-05-12T00:06:21.332Z,1.04
2023-05-12T00:07:21.477Z,1.04
2023-05-12T00:08:21.633Z,1.04
2023-05-12T00:09:21.786Z,1.04
2023-05-12T00:10:22.146Z,1.04
2023-05-12T00:11:22.093Z,1.04
2023-05-12T00:12:22.192Z,1.04
2023-05-12T00:13:22.407Z,1.04
2023-05-12T00:14:22.489Z,1.04
2023-05-12T00:15:22.573Z,1.04
2023-05-12T00:16:22.753Z,1.04
2023-05-12T00:17:22.910Z,1.04
2023-05-12T00:18:23.070Z,1.04
2023-05-12T00:19:23.128Z,1.04
2023-05-12T00:20:23.326Z,1.04
2023-05-12T00:21:23.432Z,1.04
2023-05-12T00:22:23.668Z,1.04
2023-05-12T00:23:23.749Z,1.04
2023-05-12T00:24:24.441Z,1.04
2023-05-12T00:25:24.003Z,1.04
2023-05-12T00:26:24.095Z,1.04
2023-05-12T00:27:24.850Z,1.04
2023-05-12T00:28:24.421Z,1.04
2023-05-12T00:29:24.565Z,1.04
2023-05-12T00:30:25.197Z,1.04
2023-05-12T00:31:24.884Z,1.04
2023-05-12T00:32:25.050Z,1.04
2023-05-12T00:33:25.137Z,1.04
2023-05-12T00:34:25.281Z,1.04
2023-05-12T00:35:25.429Z,1.04
2023-05-12T00:36:25.575Z,1.04
2023-05-12T00:37:25.749Z,1.04
2023-05-12T00:38:25.892Z,1.04
2023-05-12T00:39:26.045Z,1.04
2023-05-12T00:40:26.198Z,1.04
2023-05-12T00:41:26.302Z,1.04
2023-05-12T00:42:26.435Z,1.04
2023-05-12T00:43:26.627Z,1.04
2023-05-12T00:44:27.180Z,1.04
2023-05-12T00:45:26.910Z,1.04
2023-05-12T00:46:27.033Z,1.04
2023-05-12T00:47:27.200Z,1.04
2023-05-12T00:48:27.307Z,1.04
2023-05-12T00:49:27.421Z,1.04
2023-05-12T00:50:27.577Z,1.04
2023-05-12T00:51:27.720Z,1.04
2023-05-12T00:52:27.864Z,1.04
2023-05-12T00:53:35.088Z,1.04
2023-05-12T00:54:28.116Z,1.04
2023-05-12T00:55:28.249Z,1.04
2023-05-12T00:56:28.390Z,1.04
2023-05-12T00:57:28.531Z,1.04
2023-05-12T00:58:28.685Z,1.04
2023-05-12T00:59:29.298Z,1.04
2023-05-12T01:00:28.979Z,1.04
2023-05-12T01:01:29.160Z,1.04
2023-05-12T01:02:29.414Z,1.04
2023-05-12T01:03:29.612Z,1.04
2023-05-12T01:04:29.483Z,1.04
2023-05-12T01:05:29.662Z,1.04
2023-05-12T01:06:29.788Z,1.04
2023-05-12T01:07:29.898Z,1.04
2023-05-12T01:08:30.040Z,1.04
2023-05-12T01:09:30.186Z,1.04
2023-05-12T01:10:30.297Z,1.04
2023-05-12T01:11:30.466Z,1.04
2023-05-12T01:12:30.553Z,1.04
2023-05-12T01:13:30.641Z,1.04
2023-05-12T01:14:31.424Z,1.04
2023-05-12T01:15:30.944Z,1.04
2023-05-12T01:16:31.130Z,1.04
2023-05-12T01:17:31.320Z,1.04
2023-05-12T01:18:31.464Z,1.04
2023-05-12T01:19:31.504Z,1.04
2023-05-12T01:20:31.680Z,1.04
2023-05-12T01:21:31.821Z,1.04
2023-05-12T01:22:32.001Z,1.04
2023-05-12T01:23:32.112Z,1.04
2023-05-12T01:24:32.274Z,1.04
2023-05-12T01:25:32.414Z,1.04
2023-05-12T01:26:32.518Z,1.04
2023-05-12T01:27:32.642Z,1.04
2023-05-12T01:28:32.767Z,1.04
2023-05-12T01:29:33.471Z,1.04
2023-05-12T01:30:33.063Z,1.04
2023-05-12T01:31:33.312Z,1.04
2023-05-12T01:32:33.415Z,1.04
2023-05-12T01:33:33.460Z,1.04
2023-05-12T01:34:33.611Z,1.04
2023-05-12T01:35:33.762Z,1.04
2023-05-12T01:36:33.857Z,1.04
2023-05-12T01:37:34.549Z,1.04
2023-05-12T01:38:34.195Z,1.04
2023-05-12T01:39:34.352Z,1.04
2023-05-12T01:40:34.510Z,1.04
2023-05-12T01:41:34.668Z,1.04
2023-05-12T01:42:34.808Z,1.04
2023-05-12T01:43:34.928Z,1.04
2023-05-12T01:44:35.595Z,1.04
2023-05-12T01:45:35.242Z,1.04
2023-05-12T01:46:35.524Z,1.04
2023-05-12T01:47:35.572Z,1.04
2023-05-12T01:48:35.650Z,1.04
2023-05-12T01:49:35.735Z,1.04
2023-05-12T01:50:35.840Z,1.04
2023-05-12T01:51:36.005Z,1.04
2023-05-12T01:52:36.170Z,1.04
2023-05-12T01:53:36.275Z,1.04
2023-05-12T01:54:36.416Z,1.04
2023-05-12T01:55:36.562Z,1.04
2023-05-12T01:56:36.708Z,1.04
2023-05-12T01:57:36.826Z,1.04
2023-05-12T01:58:36.990Z,1.04
2023-05-12T01:59:37.720Z,1.04
2023-05-12T02:00:37.275Z,1.04
2023-05-12T02:01:37.466Z,1.04
2023-05-12T02:02:37.687Z,1.04
2023-05-12T02:03:37.752Z,1.04
2023-05-12T02:04:37.875Z,1.04
2023-05-12T02:05:37.985Z,1.04
2023-05-12T02:06:38.149Z,1.04
2023-05-12T02:07:38.283Z,1.04
2023-05-12T02:08:38.429Z,1.04
2023-05-12T02:09:38.595Z,1.04
2023-05-12T02:10:38.773Z,1.04
2023-05-12T02:11:38.874Z,1.04
2023-05-12T02:12:39.080Z,1.04
2023-05-12T02:13:39.168Z,1.04
2023-05-12T02:14:39.790Z,1.04
2023-05-12T02:15:39.438Z,1.04
2023-05-12T02:16:39.576Z,1.04
2023-05-12T02:17:39.753Z,1.04
2023-05-12T02:18:39.912Z,1.04
2023-05-12T02:19:40.021Z,1.04
2023-05-12T02:20:40.151Z,1.04
2023-05-12T02:21:40.322Z,1.04
2023-05-12T02:22:40.478Z,1.04
2023-05-12T02:23:40.625Z,1.04
2023-05-12T02:24:40.758Z,1.04
2023-05-12T02:25:40.876Z,1.04
2023-05-12T02:26:41.041Z,1.04
2023-05-12T02:27:41.167Z,1.04
2023-05-12T02:28:41.323Z,1.04
2023-05-12T02:29:41.991Z,1.04
2023-05-12T02:30:41.576Z,1.04
2023-05-12T02:31:41.741Z,1.04
2023-05-12T02:32:41.897Z,1.04
2023-05-12T02:33:42.036Z,1.04
2023-05-12T02:34:42.182Z,1.04
2023-05-12T02:35:42.324Z,1.04
2023-05-12T02:36:42.486Z,1.04
2023-05-12T02:37:42.574Z,1.04
2023-05-12T02:38:42.748Z,1.04
2023-05-12T02:39:42.891Z,1.04
2023-05-12T02:40:43.050Z,2
2023-05-12T02:41:43.213Z,2
2023-05-12T02:42:43.343Z,2
2023-05-12T02:43:43.530Z,2
2023-05-12T02:44:44.081Z,2
2023-05-12T02:45:43.851Z,2
2023-05-12T02:46:43.970Z,3.04
2023-05-12T02:47:44.192Z,3.04
2023-05-12T02:48:44.248Z,3.04
2023-05-12T02:49:44.371Z,4
2023-05-12T02:50:44.501Z,4
2023-05-12T02:51:44.677Z,5.04
2023-05-12T02:52:44.817Z,5.04
2023-05-12T02:53:45.015Z,6
2023-05-12T02:54:45.151Z,7.04
2023-05-12T02:55:45.313Z,8
2023-05-12T02:56:45.435Z,9.04
2023-05-12T02:57:45.552Z,10
2023-05-12T02:58:45.840Z,12
2023-05-12T02:59:46.371Z,13.04
2023-05-12T03:00:46.136Z,16
2023-05-12T03:01:46.196Z,18
2023-05-12T03:02:46.445Z,20
2023-05-12T03:03:46.592Z,23.04
2023-05-12T03:04:46.564Z,26
2023-05-12T03:05:46.685Z,30
2023-05-12T03:06:46.833Z,34
2023-05-12T03:07:46.986Z,39.04
2023-05-12T03:08:47.141Z,44
2023-05-12T03:09:47.296Z,49.04
2023-05-12T03:10:47.430Z,55.04
2023-05-12T03:11:47.591Z,61.04
2023-05-12T03:12:47.754Z,67.04
2023-05-12T03:13:47.902Z,100
2023-05-12T03:14:48.542Z,108
2023-05-12T03:15:48.155Z,118
2023-05-12T03:16:48.410Z,127.04
2023-05-12T03:17:48.553Z,137.04
2023-05-12T03:18:48.676Z,151.04
2023-05-12T03:19:48.760Z,164
2023-05-12T03:20:48.911Z,183.04
2023-05-12T03:21:49.057Z,200
2023-05-12T03:22:49.209Z,221.12
2023-05-12T03:23:49.379Z,245.12
2023-05-12T03:24:49.524Z,266.08
2023-05-12T03:25:49.665Z,288
2023-05-12T03:26:49.832Z,316
2023-05-12T03:27:50.016Z,342.08
2023-05-12T03:28:50.076Z,368
2023-05-12T03:29:50.734Z,407.04
2023-05-12T03:30:50.402Z,447.04
2023-05-12T03:31:50.613Z,490.24
2023-05-12T03:32:50.711Z,530.24
2023-05-12T03:33:50.766Z,587.2
2023-05-12T03:34:50.939Z,631.04
2023-05-12T03:35:51.090Z,677.12
2023-05-12T03:36:51.241Z,730.24
2023-05-12T03:37:51.399Z,795.52
2023-05-12T03:38:51.531Z,853.12
2023-05-12T03:39:51.703Z,917.12
2023-05-12T03:40:51.841Z,975.36
2023-05-12T03:41:52.002Z,1054.08
2023-05-12T03:42:52.182Z,1117.44
2023-05-12T03:43:52.316Z,1182.08
2023-05-12T03:44:53.049Z,1248
2023-05-12T03:45:52.610Z,1372.16
2023-05-12T03:46:52.790Z,1436.16
2023-05-12T03:47:52.922Z,1512.96
2023-05-12T03:48:53.015Z,1602.56
2023-05-12T03:49:53.151Z,1669.12
2023-05-12T03:50:53.312Z,1738.24
2023-05-12T03:51:53.457Z,1795.84
2023-05-12T03:52:53.627Z,1875.2
2023-05-12T03:53:53.786Z,1937.92
2023-05-12T03:54:53.915Z,2009.6
2023-05-12T03:55:54.075Z,2045.44
2023-05-12T03:56:54.187Z,2055.68
2023-05-12T03:57:54.323Z,2058.24
2023-05-12T03:58:54.467Z,2059.52
2023-05-12T03:59:55.134Z,2078.72
2023-05-12T04:00:54.726Z,2119.68
2023-05-12T04:01:54.845Z,2152.96
2023-05-12T04:02:55.043Z,2195.2
2023-05-12T04:03:55.232Z,2251.52
2023-05-12T04:04:55.318Z,2301.44
2023-05-12T04:05:55.439Z,2330.88
2023-05-12T04:06:55.577Z,2355.2
2023-05-12T04:07:55.750Z,2378.24
2023-05-12T04:08:55.902Z,2396.16
2023-05-12T04:09:56.038Z,2419.2
2023-05-12T04:10:56.201Z,2475.52
2023-05-12T04:11:56.337Z,2558.72
2023-05-12T04:12:56.445Z,2657.28
2023-05-12T04:13:56.598Z,2752
2023-05-12T04:14:57.210Z,2859.52
2023-05-12T04:15:56.856Z,3000.32
2023-05-12T04:16:57.069Z,3087.36
2023-05-12T04:17:57.241Z,3205.12
2023-05-12T04:18:57.355Z,3274.24
2023-05-12T04:19:57.412Z,3371.52
2023-05-12T04:20:57.587Z,3491.84
2023-05-12T04:21:57.733Z,3604.48
2023-05-12T04:22:57.870Z,3717.12
2023-05-12T04:23:58.023Z,3873.28
2023-05-12T04:24:58.167Z,3962.88
2023-05-12T04:25:58.329Z,4032
2023-05-12T04:26:58.480Z,4093.44
2023-05-12T04:27:58.630Z,4157.44
2023-05-12T04:28:58.789Z,4264.96
2023-05-12T04:29:59.383Z,4334.08
2023-05-12T04:30:59.108Z,4377.6
2023-05-12T04:31:59.212Z,4423.68
2023-05-12T04:32:59.380Z,4451.84
2023-05-12T04:33:59.484Z,4464.64
2023-05-12T04:34:59.649Z,4508.16
2023-05-12T04:35:59.811Z,4526.08
2023-05-12T04:36:59.942Z,4577.28
2023-05-12T04:38:00.146Z,4641.28
2023-05-12T04:39:00.256Z,4692.48
2023-05-12T04:40:00.415Z,4756.48
2023-05-12T04:41:00.591Z,4851.2
2023-05-12T04:42:00.703Z,5030.4
2023-05-12T04:43:00.844Z,5207.04
2023-05-12T04:44:01.050Z,5365.76
2023-05-12T04:45:01.037Z,5493.76
2023-05-12T04:46:01.174Z,5493.76
2023-05-12T04:47:01.301Z,5345.28
2023-05-12T04:48:01.543Z,5084.16
2023-05-12T04:49:01.622Z,4902.4
2023-05-12T04:50:01.778Z,4751.36
2023-05-12T04:51:01.941Z,4707.84
2023-05-12T04:52:02.021Z,4787.2
2023-05-12T04:53:02.179Z,4940.8
2023-05-12T04:54:02.345Z,5089.28
2023-05-12T04:55:02.482Z,5319.68
2023-05-12T04:56:02.557Z,5509.12
2023-05-12T04:57:02.719Z,5657.6
2023-05-12T04:58:02.852Z,5719.04
2023-05-12T04:59:02.956Z,5688.32
2023-05-12T05:00:03.644Z,5611.52
2023-05-12T05:01:03.282Z,5550.08
2023-05-12T05:02:03.440Z,5488.64
2023-05-12T05:03:03.706Z,5473.28
2023-05-12T05:04:03.694Z,5483.52
2023-05-12T05:05:03.837Z,5580.8
2023-05-12T05:06:03.998Z,5683.2
2023-05-12T05:07:04.180Z,5744.64
2023-05-12T05:08:04.309Z,5841.92
2023-05-12T05:09:04.432Z,5882.88
2023-05-12T05:10:04.614Z,5928.96
2023-05-12T05:11:04.746Z,5985.28
2023-05-12T05:12:04.898Z,6062.08
2023-05-12T05:13:05.055Z,6184.96
2023-05-12T05:14:05.182Z,6338.56
2023-05-12T05:15:05.342Z,6507.52
2023-05-12T05:16:05.411Z,6799.36
2023-05-12T05:17:05.563Z,7019.52
2023-05-12T05:18:06.213Z,7285.76
2023-05-12T05:19:06.572Z,7470.08
2023-05-12T05:20:11.365Z,7680
2023-05-12T05:21:06.086Z,7910.4
2023-05-12T05:22:06.155Z,8038.4
2023-05-12T05:23:06.306Z,8125.44
2023-05-12T05:24:08.470Z,8140.8
2023-05-12T05:25:06.552Z,8115.2
2023-05-12T05:26:06.725Z,8012.8
2023-05-12T05:27:06.895Z,7915.52
2023-05-12T05:28:07.036Z,7761.92
2023-05-12T05:29:07.185Z,7608.32
2023-05-12T05:30:07.863Z,7429.12
2023-05-12T05:31:07.640Z,7183.36
2023-05-12T05:32:07.574Z,7029.76
2023-05-12T05:33:07.744Z,6896.64
2023-05-12T05:34:07.911Z,6758.4
2023-05-12T05:35:07.946Z,6650.88
2023-05-12T05:36:08.098Z,6533.12
2023-05-12T05:37:08.248Z,6466.56
2023-05-12T05:38:08.396Z,6415.36
2023-05-12T05:39:08.552Z,6389.76
2023-05-12T05:40:08.700Z,6364.16
2023-05-12T05:41:08.808Z,6405.12
2023-05-12T05:42:08.907Z,6492.16
2023-05-12T05:43:09.052Z,6640.64
2023-05-12T05:44:09.221Z,6743.04
2023-05-12T05:45:09.945Z,6860.8
2023-05-12T05:46:09.519Z,6993.92
2023-05-12T05:47:09.747Z,7116.8
2023-05-12T05:48:09.906Z,7270.4
2023-05-12T05:49:09.933Z,7418.88
2023-05-12T05:50:10.072Z,7623.68
2023-05-12T05:51:10.221Z,7767.04
2023-05-12T05:52:10.373Z,7941.12
2023-05-12T05:53:10.460Z,8115.2
2023-05-12T05:54:10.587Z,8299.52
2023-05-12T05:55:10.729Z,8499.2
2023-05-12T05:56:10.853Z,8852.479
2023-05-12T05:57:10.972Z,9144.319
2023-05-12T05:58:11.090Z,9446.399
2023-05-12T05:59:11.217Z,9794.56
2023-05-12T06:00:11.325Z,10050.56
2023-05-12T06:01:11.487Z,10311.68
2023-05-12T06:02:11.684Z,10516.479
2023-05-12T06:03:11.935Z,10649.6
2023-05-12T06:04:11.983Z,10741.76
2023-05-12T06:05:13.642Z,10700.8
2023-05-12T06:06:12.181Z,10598.399
2023-05-12T06:07:12.355Z,10557.439
2023-05-12T06:08:12.500Z,10547.2
2023-05-12T06:09:12.584Z,10577.92
2023-05-12T06:10:12.754Z,10588.16
2023-05-12T06:11:12.897Z,10506.24
2023-05-12T06:12:13.054Z,10398.72
2023-05-12T06:13:13.164Z,10306.56
2023-05-12T06:14:13.247Z,10188.8
2023-05-12T06:15:13.856Z,10147.84
2023-05-12T06:16:13.530Z,10086.399
2023-05-12T06:17:13.603Z,9994.24
2023-05-12T06:18:13.761Z,9835.52
2023-05-12T06:19:14.005Z,9630.72
2023-05-12T06:20:14.075Z,9395.2
2023-05-12T06:21:14.253Z,9139.2
2023-05-12T06:22:14.358Z,8872.96
2023-05-12T06:23:14.532Z,8765.439
2023-05-12T06:24:14.698Z,8780.8
2023-05-12T06:25:14.825Z,8862.72
2023-05-12T06:26:14.984Z,8949.76
2023-05-12T06:27:15.125Z,9036.8
2023-05-12T06:28:15.234Z,9082.88
2023-05-12T06:29:15.384Z,9164.8
2023-05-12T06:30:16.423Z,9313.28
2023-05-12T06:31:15.691Z,9543.68
2023-05-12T06:32:15.921Z,9902.08
2023-05-12T06:33:15.999Z,10526.72
2023-05-12T06:34:16.163Z,11161.6
2023-05-12T06:35:16.283Z,11960.319
2023-05-12T06:36:16.471Z,12584.96
2023-05-12T06:37:16.598Z,12974.08
2023-05-12T06:38:16.772Z,14735.359
2023-05-12T06:39:16.856Z,15616
2023-05-12T06:40:17.060Z,16711.68
2023-05-12T06:41:17.149Z,17377.28
2023-05-12T06:42:17.317Z,17797.12
2023-05-12T06:43:17.460Z,17838.08
2023-05-12T06:44:17.562Z,17715.2
2023-05-12T06:45:18.370Z,17530.88
2023-05-12T06:46:17.860Z,17356.8
2023-05-12T06:47:17.917Z,17274.88
2023-05-12T06:48:18.065Z,17377.28
2023-05-12T06:49:18.215Z,17643.52
2023-05-12T06:50:18.328Z,18042.88
2023-05-12T06:51:18.478Z,18534.4
2023-05-12T06:52:18.574Z,18882.56
2023-05-12T06:53:18.731Z,19251.2
2023-05-12T06:54:18.823Z,19927.04
2023-05-12T06:55:19.290Z,20449.28
2023-05-12T06:56:19.154Z,21094.4
2023-05-12T06:57:19.300Z,21319.68
2023-05-12T06:58:19.438Z,21319.68
2023-05-12T06:59:21.299Z,21360.64
2023-05-12T07:00:20.205Z,21504
2023-05-12T07:01:19.951Z,21770.24
2023-05-12T07:02:20.130Z,21831.68
2023-05-12T07:03:20.198Z,21749.76
2023-05-12T07:04:20.300Z,21708.8
2023-05-12T07:05:20.665Z,21811.2
2023-05-12T07:06:20.688Z,22220.8
2023-05-12T07:07:20.765Z,22712.32
2023-05-12T07:08:20.851Z,23060.48
2023-05-12T07:09:21.017Z,23244.8
2023-05-12T07:10:21.155Z,23347.2
2023-05-12T07:11:21.316Z,23633.92
2023-05-12T07:12:21.464Z,24104.96
2023-05-12T07:13:21.604Z,24555.52
2023-05-12T07:14:21.783Z,24985.6
2023-05-12T07:15:22.564Z,25354.24
2023-05-12T07:16:22.021Z,25763.84
2023-05-12T07:17:22.177Z,26357.76
2023-05-12T07:18:22.425Z,26910.72
2023-05-12T07:19:22.433Z,27463.68
2023-05-12T07:20:22.521Z,28241.92
2023-05-12T07:21:22.673Z,29081.6
2023-05-12T07:22:22.822Z,30699.52
2023-05-12T07:23:22.960Z,31293.44
2023-05-12T07:24:23.070Z,32030.72
2023-05-12T07:25:23.459Z,33095.68
2023-05-12T07:26:23.333Z,34590.72
2023-05-12T07:27:23.500Z,37601.28
2023-05-12T07:28:23.633Z,36536.32
2023-05-12T07:29:23.785Z,36720.64
2023-05-12T07:30:24.374Z,37969.92
2023-05-12T07:31:24.130Z,41062.4
2023-05-12T07:32:24.179Z,40284.16
2023-05-12T07:33:24.344Z,42762.24
2023-05-12T07:34:24.496Z,41799.68
2023-05-12T07:35:24.636Z,39997.44
2023-05-12T07:36:24.782Z,40755.2
2023-05-12T07:37:24.967Z,40366.08
2023-05-12T07:38:25.098Z,39731.2
2023-05-12T07:39:25.278Z,40099.84
2023-05-12T07:40:25.414Z,64716.8
2023-05-12T07:41:25.551Z,40919.04
2023-05-12T07:42:25.704Z,41717.76
2023-05-12T07:43:25.871Z,43130.88
2023-05-12T07:44:26.624Z,51773.44
2023-05-12T07:46:26.399Z,42598.4
2023-05-12T07:47:26.511Z,39895.04
2023-05-12T07:48:26.622Z,37683.2
2023-05-12T07:49:26.782Z,35287.04
2023-05-12T07:50:26.927Z,34283.52
2023-05-12T07:51:27.069Z,33587.2
2023-05-12T07:52:27.238Z,33730.56
2023-05-12T07:53:27.390Z,34775.04
2023-05-12T07:54:27.535Z,35901.44
2023-05-12T07:55:27.685Z,37335.04
2023-05-12T07:56:27.833Z,39260.16
2023-05-12T07:57:27.984Z,49356.8
2023-05-12T07:58:28.136Z,46161.92
2023-05-12T07:59:28.791Z,49152
2023-05-12T08:00:28.430Z,52633.6
2023-05-12T08:01:28.596Z,54558.72
2023-05-12T08:02:28.894Z,59678.72
2023-05-12T08:03:28.817Z,60702.72
2023-05-12T08:04:29.032Z,54231.04
2023-05-12T08:05:29.112Z,51814.4
2023-05-12T08:06:29.244Z,52060.16
2023-05-12T08:07:29.398Z,49070.08
2023-05-12T08:08:29.592Z,50380.8
2023-05-12T08:09:29.705Z,50708.48
2023-05-12T08:10:29.886Z,52838.4
2023-05-12T08:11:30.019Z,55377.92
2023-05-12T08:12:30.185Z,63897.6
2023-05-12T08:13:30.316Z,69632
2023-05-12T08:14:31.011Z,68075.52
2023-05-12T08:15:30.622Z,62627.84
2023-05-12T08:16:30.835Z,81223.68
2023-05-12T08:17:30.933Z,70287.36
2023-05-12T08:18:31.086Z,69713.92
2023-05-12T08:19:31.227Z,56852.48
2023-05-12T08:20:31.387Z,52428.8
2023-05-12T08:21:31.565Z,108625.91
2023-05-12T08:22:31.681Z,71270.4
2023-05-12T08:23:31.821Z,98631.68
2023-05-12T08:24:31.973Z,61194.24
2023-05-12T08:25:32.092Z,93061.12
2023-05-12T08:26:32.236Z,111493.12
2023-05-12T08:27:32.393Z,110182.4
2023-05-12T08:28:32.480Z,107724.8
2023-05-12T08:29:33.087Z,90275.84
2023-05-12T08:30:32.802Z,104939.52
2023-05-12T08:31:32.941Z,102318.08
2023-05-12T08:32:33.060Z,100515.84
2023-05-12T08:33:33.162Z,100106.23
2023-05-12T08:34:33.316Z,19947.52
2023-05-12T08:35:33.412Z,20295.68
2023-05-12T08:36:33.560Z,21422.08
2023-05-12T08:37:34.676Z,29941.76
2023-05-12T08:38:33.888Z,105758.72
2023-05-12T08:39:34.010Z,110592
2023-05-12T08:40:34.119Z,33280
2023-05-12T08:41:34.249Z,33751.04
2023-05-12T08:42:34.392Z,38932.48
2023-05-12T08:43:34.563Z,110264.32
2023-05-12T08:44:34.705Z,110264.32
2023-05-12T08:45:34.848Z,109281.28
2023-05-12T08:46:35.159Z,110100.48
2023-05-12T08:47:35.265Z,30330.88
2023-05-12T08:48:35.313Z,30085.12
2023-05-12T08:49:35.479Z,29634.56
2023-05-12T08:50:35.655Z,28303.36
2023-05-12T08:51:35.771Z,26869.76
2023-05-12T08:52:35.960Z,26419.2
2023-05-12T08:53:36.080Z,26767.36
2023-05-12T08:54:45.567Z,30146.56
2023-05-12T08:55:36.388Z,33464.32
2023-05-12T08:57:38.256Z,32010.24
2023-05-12T08:59:37.382Z,36311.04
2023-05-12T09:01:37.230Z,33955.84
2023-05-12T09:02:48.698Z,109363.2
2023-05-12T09:03:37.484Z,48988.16
2023-05-12T09:04:37.642Z,29491.2
2023-05-12T09:05:37.725Z,26050.56
2023-05-12T09:06:37.853Z,24821.76
2023-05-12T09:07:38.026Z,25088
2023-05-12T09:08:38.162Z,91095.04
2023-05-12T09:09:38.261Z,106414.08
2023-05-12T09:10:38.415Z,107806.72
2023-05-12T09:11:38.560Z,106659.84
2023-05-12T09:12:38.724Z,108953.59
2023-05-12T09:13:38.819Z,109445.12
2023-05-12T09:14:38.947Z,108544
2023-05-12T09:15:39.141Z,108380.16
2023-05-12T09:16:39.349Z,108052.48
2023-05-12T09:17:39.511Z,108134.4
2023-05-12T09:18:39.600Z,108052.48
2023-05-12T09:19:39.689Z,109281.28
2023-05-12T09:20:39.828Z,97402.88
2023-05-12T09:21:39.975Z,107724.8
2023-05-12T09:22:40.136Z,30453.76
2023-05-12T09:23:40.236Z,28221.44
2023-05-12T09:24:40.346Z,26071.04
2023-05-12T09:25:40.486Z,24903.68
2023-05-12T09:26:40.666Z,25948.16
2023-05-12T09:27:40.727Z,30658.56
2023-05-12T09:28:40.909Z,30617.6
2023-05-12T09:29:48.199Z,29982.72
2023-05-12T09:30:41.073Z,32030.72
2023-05-12T09:31:41.209Z,84951.04
2023-05-12T09:32:41.340Z,38461.44
2023-05-12T09:33:41.482Z,89374.72
2023-05-12T09:34:41.743Z,81264.64
2023-05-12T09:35:41.781Z,99123.2
2023-05-12T09:36:41.940Z,56647.68
2023-05-12T09:37:42.105Z,84705.28
2023-05-12T09:38:42.231Z,57466.88
2023-05-12T09:39:42.963Z,104366.08
2023-05-12T09:40:42.504Z,34795.52
2023-05-12T09:41:42.712Z,29593.6
2023-05-12T09:42:42.830Z,28938.24
2023-05-12T09:43:42.973Z,28856.32
2023-05-12T09:44:43.554Z,29020.16
2023-05-12T09:45:43.299Z,28856.32
2023-05-12T09:46:43.340Z,27832.32
2023-05-12T09:47:43.467Z,26992.64
2023-05-12T09:48:43.598Z,25784.32
2023-05-12T09:49:43.778Z,25292.8
2023-05-12T09:50:47.147Z,24985.6
2023-05-12T09:51:44.051Z,24924.16
2023-05-12T09:52:44.182Z,25026.56
2023-05-12T09:53:44.333Z,25538.56
2023-05-12T09:54:44.478Z,26255.36
2023-05-12T09:55:44.617Z,27238.4
2023-05-12T09:56:44.755Z,28160
2023-05-12T09:57:44.888Z,28979.2
2023-05-12T09:58:45.034Z,30269.44
2023-05-12T09:59:45.732Z,31723.52
2023-05-12T10:00:59.044Z,35532.8
2023-05-12T10:01:45.468Z,99123.2
2023-05-12T10:02:45.630Z,45219.84
2023-05-12T10:03:45.740Z,73400.32
2023-05-12T10:04:45.953Z,33095.68
2023-05-12T10:05:46.056Z,29839.36
2023-05-12T10:06:46.142Z,27504.64
2023-05-12T10:07:46.317Z,26705.92
2023-05-12T10:08:46.444Z,26603.52
2023-05-12T10:09:46.609Z,26972.16
2023-05-12T10:10:46.761Z,27648
2023-05-12T10:11:46.905Z,27873.28
2023-05-12T10:12:47.055Z,28078.08
2023-05-12T10:13:47.258Z,28692.48
2023-05-12T10:14:47.859Z,29204.48
2023-05-12T10:15:47.515Z,29921.28
2023-05-12T10:16:47.658Z,30863.36
2023-05-12T10:17:47.794Z,31518.72
2023-05-12T10:18:47.957Z,32215.04
2023-05-12T10:19:47.963Z,33013.76
2023-05-12T10:20:48.126Z,33996.8
2023-05-12T10:21:48.270Z,34816
2023-05-12T10:22:48.433Z,36085.76
2023-05-12T10:23:48.586Z,38277.12
2023-05-12T10:24:48.725Z,38952.96
2023-05-12T10:25:48.891Z,37109.76
2023-05-12T10:26:49.040Z,32317.44
2023-05-12T10:27:49.186Z,29306.88
2023-05-12T10:28:49.349Z,27648
2023-05-12T10:29:51.386Z,26705.92
2023-05-12T10:30:49.631Z,26132.48
2023-05-12T10:31:49.902Z,25559.04
2023-05-12T10:32:49.993Z,25497.6
2023-05-12T10:33:50.080Z,25640.96
2023-05-12T10:34:50.188Z,25845.76
2023-05-12T10:35:50.360Z,26337.28
2023-05-12T10:36:50.502Z,27013.12
2023-05-12T10:37:50.658Z,27893.76
2023-05-12T10:38:50.806Z,29306.88
2023-05-12T10:39:50.970Z,30679.04
2023-05-12T10:40:51.104Z,32686.08
2023-05-12T10:41:52.745Z,34549.76
2023-05-12T10:42:51.417Z,37089.28
2023-05-12T10:43:51.555Z,39444.48
2023-05-12T10:44:52.368Z,41594.88
2023-05-12T10:45:51.885Z,43622.4
2023-05-12T10:46:52.327Z,45219.84
2023-05-12T10:47:52.184Z,55459.84
2023-05-12T10:48:52.277Z,64839.68
2023-05-12T10:49:52.432Z,84705.28
2023-05-12T10:50:52.560Z,90439.68
2023-05-12T10:51:52.731Z,61194.24
2023-05-12T10:52:52.880Z,61726.72
2023-05-12T10:53:54.688Z,75653.12
2023-05-12T10:54:53.079Z,91176.96
2023-05-12T10:55:53.467Z,70656
2023-05-12T10:56:53.538Z,42598.4
2023-05-12T10:57:53.932Z,39116.8
2023-05-12T10:58:54.024Z,37335.04
2023-05-12T10:59:54.627Z,35328
2023-05-12T11:00:54.711Z,35082.24
2023-05-12T11:01:54.281Z,34058.24
2023-05-12T11:02:55.829Z,33812.48
2023-05-12T11:03:54.374Z,34324.48
2023-05-12T11:04:54.408Z,35921.92
2023-05-12T11:05:54.627Z,37294.08
2023-05-12T11:06:54.752Z,39014.4
2023-05-12T11:07:54.906Z,40857.6
2023-05-12T11:08:55.219Z,43704.32
2023-05-12T11:09:58.811Z,63078.4
2023-05-12T11:10:55.762Z,52183.04
2023-05-12T11:11:56.498Z,44646.4
2023-05-12T11:12:55.494Z,42393.6
2023-05-12T11:13:55.661Z,41144.32
2023-05-12T11:14:56.318Z,39198.72
2023-05-12T11:15:56.022Z,41472
2023-05-12T11:16:56.090Z,47390.72
2023-05-12T11:17:56.259Z,44400.64
2023-05-12T11:18:56.379Z,42352.64
2023-05-12T11:19:56.491Z,37048.32
2023-05-12T11:20:56.672Z,40448
2023-05-12T11:21:56.795Z,56647.68
2023-05-12T11:22:56.947Z,47308.8
2023-05-12T11:23:57.044Z,68526.08
2023-05-12T11:24:57.223Z,53739.52
2023-05-12T11:25:57.404Z,42721.28
2023-05-12T11:26:57.503Z,69672.96
2023-05-12T11:27:57.647Z,42311.68
2023-05-12T11:28:57.759Z,41185.28
2023-05-12T11:29:58.358Z,44441.6
2023-05-12T11:30:58.038Z,53657.6
2023-05-12T11:31:58.200Z,49192.96
2023-05-12T11:32:58.337Z,42024.96
2023-05-12T11:34:08.498Z,48209.92
2023-05-12T11:34:58.488Z,49111.04
2023-05-12T11:35:58.612Z,41328.64
2023-05-12T11:36:58.757Z,42229.76
2023-05-12T11:37:58.908Z,44482.56
2023-05-12T11:38:59.065Z,45670.4
2023-05-12T11:39:59.217Z,45998.08
2023-05-12T11:40:59.370Z,43212.8
2023-05-12T11:42:11.961Z,45056
2023-05-12T11:42:59.612Z,42065.92
2023-05-12T11:43:59.774Z,44072.96
2023-05-12T11:45:00.531Z,43294.72
2023-05-12T11:46:00.121Z,41144.32
2023-05-12T11:47:00.227Z,42434.56
2023-05-12T11:48:00.414Z,39690.24
2023-05-12T11:49:00.558Z,39649.28
2023-05-12T11:50:00.628Z,47267.84
2023-05-12T11:51:00.781Z,41021.44
2023-05-12T11:52:00.921Z,37539.84
2023-05-12T11:53:01.090Z,35655.68
2023-05-12T11:54:01.255Z,34201.6
2023-05-12T11:55:01.371Z,33136.64
2023-05-12T11:56:01.548Z,32972.8
2023-05-12T11:57:01.695Z,33484.8
2023-05-12T11:58:01.894Z,35225.6
2023-05-12T11:59:01.947Z,38584.32
2023-05-12T12:00:02.564Z,54312.96
2023-05-12T12:01:02.212Z,38707.2
2023-05-12T12:02:02.360Z,40099.84
2023-05-12T12:03:02.570Z,36843.52
2023-05-12T12:04:02.698Z,35266.56
2023-05-12T12:05:02.802Z,33505.28
2023-05-12T12:06:02.966Z,33628.16
2023-05-12T12:07:03.115Z,31580.16
2023-05-12T12:08:03.258Z,38010.88
2023-05-12T12:09:03.387Z,40017.92
2023-05-12T12:10:03.511Z,36106.24
2023-05-12T12:11:03.921Z,30146.56
2023-05-12T12:12:03.817Z,32829.44
2023-05-12T12:13:03.967Z,48414.72
2023-05-12T12:14:04.109Z,52551.68
2023-05-12T12:15:04.796Z,23408.64
2023-05-12T12:16:04.431Z,21872.64
2023-05-12T12:17:04.527Z,21114.88
2023-05-12T12:18:04.673Z,21278.72
2023-05-12T12:19:04.753Z,21811.2
2023-05-12T12:20:04.887Z,22118.4
2023-05-12T12:21:05.043Z,22712.32
2023-05-12T12:22:05.187Z,23080.96
2023-05-12T12:23:05.361Z,23040
2023-05-12T12:24:05.439Z,22548.48
2023-05-12T12:25:05.589Z,22323.2